createdAt,value
2022-10-01T00:02:02.537Z,8.00
2022-10-01T00:04:29.465Z,9.20
2022-10-01T00:07:00.352Z,8.10
2022-10-01T00:09:27.236Z,7.50
2022-10-01T00:11:54.112Z,9.60
2022-10-01T00:14:21.038Z,7.30
2022-10-01T00:21:00.634Z,7.20
2022-10-01T00:23:27.447Z,7.20
2022-10-01T00:25:54.232Z,9.70
2022-10-01T00:28:21.139Z,9.00
2022-10-01T00:30:48.063Z,7.50
2022-10-01T00:33:14.929Z,8.10
2022-10-01T00:35:41.800Z,9.80
2022-10-01T00:38:08.644Z,7.40
2022-10-01T00:40:35.513Z,9.50
2022-10-01T00:43:18.403Z,9.60
2022-10-01T00:45:45.483Z,8.40
2022-10-01T00:48:12.288Z,10.10
2022-10-01T00:50:39.117Z,7.10
2022-10-01T00:53:08.138Z,9.10
2022-10-01T00:55:40.202Z,9.80
2022-10-01T00:58:08.116Z,9.30
2022-10-01T01:00:35.290Z,8.20
2022-10-01T01:03:02.154Z,8.50
2022-10-01T01:05:29.037Z,9.60
2022-10-01T01:07:55.843Z,8.80
2022-10-01T01:10:45.073Z,9.60
2022-10-01T01:13:22.087Z,7.20
2022-10-01T01:16:03.731Z,8.60
2022-10-01T01:18:40.431Z,7.20
2022-10-01T01:21:21.841Z,7.20
2022-10-01T01:24:05.897Z,7.20
2022-10-01T01:26:47.057Z,7.20
2022-10-01T01:29:32.941Z,7.90
2022-10-01T01:32:02.579Z,9.50
2022-10-01T01:34:30.268Z,7.30
2022-10-01T01:37:12.074Z,8.10
2022-10-01T01:39:40.622Z,8.80
2022-10-01T01:42:10.318Z,8.10
2022-10-01T01:44:39.303Z,8.70
2022-10-01T01:47:07.253Z,7.30
2022-10-01T01:49:34.384Z,10.00
2022-10-01T01:52:04.549Z,7.40
2022-10-01T01:54:31.615Z,7.40
2022-10-01T01:56:58.927Z,9.70
2022-10-01T01:59:26.702Z,7.40
2022-10-01T02:01:53.695Z,8.10
2022-10-01T02:04:42.681Z,7.60
2022-10-01T02:07:34.965Z,7.50
2022-10-01T02:10:35.151Z,9.40
2022-10-01T02:13:15.028Z,7.50
2022-10-01T02:16:15.121Z,7.60
2022-10-01T02:19:06.526Z,7.60
2022-10-01T02:21:46.054Z,7.60
2022-10-01T02:24:32.964Z,7.70
2022-10-01T02:27:00.982Z,7.70
2022-10-01T02:29:27.828Z,7.70
2022-10-01T02:31:55.754Z,9.40
2022-10-01T02:34:24.099Z,8.00
2022-10-01T02:36:50.931Z,7.80
2022-10-01T02:39:17.961Z,7.90
2022-10-01T02:41:45.057Z,9.40
2022-10-01T02:44:21.298Z,8.40
2022-10-01T02:47:08.193Z,7.80
2022-10-01T02:49:35.694Z,7.80
2022-10-01T02:52:19.743Z,9.20
2022-10-01T02:54:56.985Z,7.80
2022-10-01T02:57:24.621Z,8.00
2022-10-01T02:59:51.962Z,10.40
2022-10-01T03:02:19.452Z,9.90
2022-10-01T03:04:48.173Z,7.80
2022-10-01T03:07:15.984Z,7.90
2022-10-01T03:09:43.036Z,10.20
2022-10-01T03:12:10.766Z,8.60
2022-10-01T03:14:39.372Z,8.30
2022-10-01T03:17:07.234Z,8.70
2022-10-01T03:19:34.205Z,7.80
2022-10-01T03:22:03.754Z,10.10
2022-10-01T03:24:30.848Z,9.30
2022-10-01T03:26:57.950Z,8.00
2022-10-01T03:29:25.461Z,10.20
2022-10-01T03:31:52.488Z,9.40
2022-10-01T03:34:19.599Z,9.90
2022-10-01T03:36:47.046Z,7.80
2022-10-01T03:39:13.950Z,10.30
2022-10-01T03:41:40.783Z,8.70
2022-10-01T03:44:07.647Z,8.10
2022-10-01T03:46:34.513Z,8.00
2022-10-01T03:49:01.469Z,8.20
2022-10-01T03:51:28.883Z,7.90
2022-10-01T03:53:56.597Z,8.60
2022-10-01T03:56:23.556Z,8.70
2022-10-01T03:58:50.700Z,8.10
2022-10-01T04:01:17.727Z,8.40
2022-10-01T04:03:44.646Z,8.50
2022-10-01T04:06:11.649Z,8.00
2022-10-01T04:08:38.921Z,8.00
2022-10-01T04:11:06.610Z,8.20
2022-10-01T04:13:34.629Z,9.40
2022-10-01T04:16:02.796Z,9.60
2022-10-01T04:18:29.738Z,10.50
2022-10-01T04:20:56.563Z,9.30
2022-10-01T04:23:23.644Z,10.80
2022-10-01T04:25:50.542Z,10.40
2022-10-01T04:28:17.466Z,8.10
2022-10-01T04:30:45.215Z,10.70
2022-10-01T04:33:13.324Z,11.10
2022-10-01T04:35:40.258Z,10.40
2022-10-01T04:38:08.816Z,10.60
2022-10-01T04:40:36.333Z,9.60
2022-10-01T04:43:03.982Z,10.20
2022-10-01T04:45:30.940Z,10.00
2022-10-01T04:47:58.645Z,10.80
2022-10-01T04:50:26.228Z,8.90
2022-10-01T04:52:53.081Z,8.50
2022-10-01T04:55:20.391Z,8.50
2022-10-01T04:57:47.304Z,9.20
2022-10-01T05:00:18.957Z,9.40
2022-10-01T05:02:46.615Z,8.40
2022-10-01T05:05:13.481Z,10.80
2022-10-01T05:07:40.619Z,9.40
2022-10-01T05:10:35.570Z,8.40
2022-10-01T05:13:02.478Z,11.00
2022-10-01T05:15:29.870Z,11.30
2022-10-01T05:17:56.773Z,8.50
2022-10-01T05:20:26.136Z,9.90
2022-10-01T05:22:53.036Z,8.50
2022-10-01T05:25:20.175Z,10.30
2022-10-01T05:27:47.091Z,8.10
2022-10-01T05:30:15.097Z,11.30
2022-10-01T05:32:41.958Z,11.30
2022-10-01T05:35:09.002Z,8.50
2022-10-01T05:37:35.787Z,8.60
2022-10-01T05:40:02.929Z,11.00
2022-10-01T05:42:29.846Z,8.60
2022-10-01T05:44:56.944Z,8.70
2022-10-01T05:47:23.804Z,10.50
2022-10-01T05:49:50.670Z,11.30
2022-10-01T05:52:17.561Z,9.20
2022-10-01T05:54:44.518Z,9.00
2022-10-01T05:57:11.385Z,8.70
2022-10-01T05:59:38.220Z,8.70
2022-10-01T06:02:05.128Z,8.80
2022-10-01T06:04:32.136Z,9.50
2022-10-01T06:06:59.106Z,8.70
2022-10-01T06:09:26.073Z,9.10
2022-10-01T06:11:52.936Z,10.90
2022-10-01T06:14:19.865Z,9.00
2022-10-01T06:16:47.829Z,9.80
2022-10-01T06:19:14.835Z,9.60
2022-10-01T06:21:41.742Z,9.30
2022-10-01T06:24:09.357Z,10.00
2022-10-01T06:26:36.520Z,9.20
2022-10-01T06:29:03.607Z,8.80
2022-10-01T06:31:30.765Z,9.00
2022-10-01T06:33:57.777Z,9.10
2022-10-01T06:36:24.623Z,8.80
2022-10-01T06:38:51.775Z,8.80
2022-10-01T06:41:18.700Z,11.00
2022-10-01T06:43:45.575Z,6.50
2022-10-01T06:46:12.529Z,9.20
2022-10-01T06:48:39.436Z,8.80
2022-10-01T06:51:06.547Z,8.80
2022-10-01T06:53:33.430Z,8.80
2022-10-01T06:56:04.813Z,8.80
2022-10-01T06:58:31.810Z,9.40
2022-10-01T07:01:00.133Z,11.00
2022-10-01T07:03:27.332Z,10.30
2022-10-01T07:05:54.204Z,9.80
2022-10-01T07:08:22.495Z,9.70
2022-10-01T07:10:49.421Z,9.50
2022-10-01T07:13:17.653Z,10.10
2022-10-01T07:15:45.333Z,9.00
2022-10-01T07:18:12.394Z,9.60
2022-10-01T07:20:42.134Z,10.70
2022-10-01T07:23:11.436Z,10.10
2022-10-01T07:25:39.182Z,9.50
2022-10-01T07:28:07.037Z,9.80
2022-10-01T07:30:34.100Z,11.70
2022-10-01T07:33:00.995Z,9.70
2022-10-01T07:35:29.704Z,9.50
2022-10-01T07:37:56.582Z,10.80
2022-10-01T07:40:23.572Z,10.20
2022-10-01T07:42:56.348Z,11.20
2022-10-01T07:45:23.495Z,9.50
2022-10-01T07:48:08.755Z,9.70
2022-10-01T07:50:35.601Z,9.30
2022-10-01T07:53:02.865Z,8.30
2022-10-01T07:55:30.854Z,9.40
2022-10-01T07:57:58.108Z,11.90
2022-10-01T08:00:27.586Z,6.90
2022-10-01T08:02:56.227Z,9.40
2022-10-01T08:05:30.519Z,9.50
2022-10-01T08:08:01.976Z,9.90
2022-10-01T08:10:29.175Z,9.50
2022-10-01T08:13:14.993Z,10.50
2022-10-01T08:15:53.435Z,9.50
2022-10-01T08:18:23.377Z,11.90
2022-10-01T08:21:31.624Z,10.10
2022-10-01T08:23:58.537Z,9.60
2022-10-01T08:26:25.269Z,9.90
2022-10-01T08:28:52.100Z,11.10
2022-10-01T08:31:19.042Z,10.90
2022-10-01T08:33:45.862Z,9.70
2022-10-01T08:36:12.640Z,11.10
2022-10-01T08:38:40.346Z,11.70
2022-10-01T08:41:23.595Z,12.20
2022-10-01T08:43:51.284Z,9.80
2022-10-01T08:46:19.726Z,8.50
2022-10-01T08:49:12.625Z,12.00
2022-10-01T08:51:50.331Z,9.90
2022-10-01T08:54:48.343Z,10.00
2022-10-01T08:57:17.876Z,10.00
2022-10-01T08:59:59.372Z,12.00
2022-10-01T09:02:26.927Z,12.30
2022-10-01T09:05:01.461Z,12.40
2022-10-01T09:08:03.220Z,11.30
2022-10-01T09:11:00.689Z,10.30
2022-10-01T09:14:05.487Z,10.40
2022-10-01T09:17:04.335Z,10.50
2022-10-01T09:19:55.078Z,10.60
2022-10-01T09:22:38.536Z,10.70
2022-10-01T09:25:24.066Z,10.80
2022-10-01T09:28:00.919Z,10.80
2022-10-01T09:30:29.147Z,12.70
2022-10-01T09:33:04.217Z,12.50
2022-10-01T09:35:50.409Z,11.00
2022-10-01T09:38:25.291Z,11.10
2022-10-01T09:40:58.890Z,11.20
2022-10-01T09:43:33.133Z,11.30
2022-10-01T09:46:00.254Z,11.30
2022-10-01T09:48:31.788Z,11.40
2022-10-01T09:51:15.539Z,11.40
2022-10-01T09:54:03.435Z,11.40
2022-10-01T09:56:34.181Z,11.50
2022-10-01T09:59:04.502Z,11.40
2022-10-01T10:01:44.495Z,11.50
2022-10-01T10:04:12.469Z,11.50
2022-10-01T10:06:41.454Z,11.50
2022-10-01T10:09:14.913Z,11.50
2022-10-01T10:11:45.584Z,11.50
2022-10-01T10:14:21.692Z,11.50
2022-10-01T10:16:48.721Z,11.50
2022-10-01T10:19:18.290Z,11.50
2022-10-01T10:21:52.107Z,11.50
2022-10-01T10:24:26.854Z,11.40
2022-10-01T10:26:58.649Z,11.40
2022-10-01T10:29:31.862Z,11.30
2022-10-01T10:32:40.928Z,11.30
2022-10-01T10:35:13.731Z,11.20
2022-10-01T10:37:49.221Z,8.70
2022-10-01T10:40:22.754Z,11.20
2022-10-01T10:42:54.322Z,11.10
2022-10-01T10:45:29.758Z,11.10
2022-10-01T10:47:56.767Z,11.10
2022-10-01T10:50:29.941Z,11.20
2022-10-01T10:52:57.610Z,11.10
2022-10-01T10:55:26.397Z,11.20
2022-10-01T10:57:57.542Z,11.10
2022-10-01T11:00:26.170Z,11.10
2022-10-01T11:02:57.467Z,11.10
2022-10-01T11:05:26.551Z,11.10
2022-10-01T11:07:56.020Z,11.10
2022-10-01T11:10:45.583Z,11.10
2022-10-01T11:13:34.742Z,13.30
2022-10-01T11:16:24.870Z,11.00
2022-10-01T11:18:56.166Z,11.00
2022-10-01T11:21:29.258Z,11.20
2022-10-01T11:24:21.338Z,11.10
2022-10-01T11:26:53.256Z,11.10
2022-10-01T11:29:20.702Z,11.20
2022-10-01T11:32:05.956Z,11.20
2022-10-01T11:34:48.745Z,11.20
2022-10-01T11:37:41.603Z,11.20
2022-10-01T11:40:37.363Z,11.20
2022-10-01T11:43:19.292Z,11.20
2022-10-01T11:45:52.071Z,11.20
2022-10-01T11:48:53.293Z,11.20
2022-10-01T11:51:23.053Z,11.20
2022-10-01T11:53:54.841Z,11.20
2022-10-01T11:56:45.676Z,11.30
2022-10-01T11:59:34.709Z,11.30
2022-10-01T12:02:15.417Z,11.40
2022-10-01T12:04:58.549Z,11.30
2022-10-01T12:07:54.744Z,11.40
2022-10-01T12:10:30.723Z,11.40
2022-10-01T12:13:15.946Z,11.50
2022-10-01T12:15:49.393Z,11.50
2022-10-01T12:18:19.238Z,11.50
2022-10-01T12:20:53.841Z,11.50
2022-10-01T12:23:28.814Z,11.50
2022-10-01T12:26:07.675Z,11.60
2022-10-01T12:29:00.304Z,11.60
2022-10-01T12:31:33.844Z,11.70
2022-10-01T12:34:27.190Z,11.60
2022-10-01T12:37:10.232Z,11.70
2022-10-01T12:39:52.244Z,11.80
2022-10-01T12:42:38.197Z,11.80
2022-10-01T12:45:33.010Z,11.90
2022-10-01T12:48:24.700Z,11.60
2022-10-01T12:51:09.717Z,11.90
2022-10-01T12:53:41.171Z,11.90
2022-10-01T12:56:17.263Z,11.90
2022-10-01T12:59:27.278Z,12.00
2022-10-01T13:02:12.407Z,12.00
2022-10-01T13:05:04.441Z,12.00
2022-10-01T13:07:40.617Z,11.20
2022-10-01T13:10:14.549Z,12.10
2022-10-01T13:13:07.913Z,12.10
2022-10-01T13:15:40.169Z,12.10
2022-10-01T13:18:10.412Z,12.10
2022-10-01T13:20:55.406Z,12.10
2022-10-01T13:23:42.844Z,12.20
2022-10-01T13:26:18.537Z,12.10
2022-10-01T13:28:52.901Z,12.00
2022-10-01T13:31:19.998Z,12.00
2022-10-01T13:34:01.679Z,12.00
2022-10-01T13:36:30.330Z,12.00
2022-10-01T13:38:57.452Z,12.00
2022-10-01T13:41:34.117Z,12.00
2022-10-01T13:44:11.635Z,12.10
2022-10-01T13:47:00.541Z,12.10
2022-10-01T13:49:29.010Z,12.00
2022-10-01T13:51:56.345Z,12.10
2022-10-01T13:54:33.183Z,12.10
2022-10-01T13:57:10.569Z,11.10
2022-10-01T13:59:39.042Z,12.00
2022-10-01T14:02:31.997Z,12.10
2022-10-01T14:05:17.395Z,12.10
2022-10-01T14:07:44.953Z,12.10
2022-10-01T14:10:13.417Z,12.10
2022-10-01T14:13:00.294Z,12.10
2022-10-01T14:15:59.911Z,12.10
2022-10-01T14:18:39.802Z,12.10
2022-10-01T14:21:17.754Z,12.10
2022-10-01T14:24:16.105Z,12.10
2022-10-01T14:26:53.565Z,12.10
2022-10-01T14:29:21.379Z,12.20
2022-10-01T14:31:58.160Z,12.10
2022-10-01T14:34:54.094Z,12.10
2022-10-01T14:37:21.336Z,12.20
2022-10-01T14:40:09.652Z,12.20
2022-10-01T14:42:36.643Z,12.20
2022-10-01T14:45:15.208Z,12.20
2022-10-01T14:47:42.230Z,12.20
2022-10-01T14:50:17.725Z,12.20
2022-10-01T14:52:47.547Z,12.20
2022-10-01T14:55:14.968Z,12.20
2022-10-01T14:57:49.495Z,12.20
2022-10-01T15:00:18.133Z,12.30
2022-10-01T15:02:50.897Z,12.30
2022-10-01T15:05:28.633Z,12.30
2022-10-01T15:07:56.247Z,12.30
2022-10-01T15:10:26.459Z,12.40
2022-10-01T15:12:55.135Z,12.40
2022-10-01T15:15:27.707Z,12.30
2022-10-01T15:17:55.762Z,12.30
2022-10-01T15:20:23.262Z,12.40
2022-10-01T15:22:50.463Z,12.40
2022-10-01T15:25:25.852Z,12.30
2022-10-01T15:27:56.714Z,12.40
2022-10-01T15:30:25.887Z,12.40
2022-10-01T15:32:52.949Z,12.40
2022-10-01T15:35:22.221Z,12.40
2022-10-01T15:37:50.425Z,12.40
2022-10-01T15:40:29.446Z,12.40
2022-10-01T15:43:08.987Z,12.40
2022-10-01T15:45:36.435Z,12.40
2022-10-01T15:48:03.478Z,12.50
2022-10-01T15:50:36.863Z,12.50
2022-10-01T15:53:06.363Z,11.20
2022-10-01T15:55:45.202Z,12.50
2022-10-01T15:58:27.151Z,12.50
2022-10-01T16:00:58.436Z,12.50
2022-10-01T16:03:27.716Z,12.50
2022-10-01T16:05:55.068Z,12.50
2022-10-01T16:08:24.610Z,12.50
2022-10-01T16:11:13.709Z,12.50
2022-10-01T16:13:43.056Z,12.50
2022-10-01T16:16:13.636Z,12.60
2022-10-01T16:18:41.254Z,12.60
2022-10-01T16:21:10.181Z,12.60
2022-10-01T16:23:42.631Z,12.60
2022-10-01T16:26:32.439Z,12.60
2022-10-01T16:29:12.119Z,12.60
2022-10-01T16:31:40.380Z,12.60
2022-10-01T16:34:14.827Z,12.60
2022-10-01T16:36:42.466Z,12.70
2022-10-01T16:39:12.580Z,12.70
2022-10-01T16:41:40.728Z,12.70
2022-10-01T16:44:11.254Z,12.70
2022-10-01T16:46:38.234Z,12.70
2022-10-01T16:49:15.381Z,12.80
2022-10-01T16:51:45.299Z,12.70
2022-10-01T16:54:32.835Z,12.80
2022-10-01T16:57:02.386Z,12.80
2022-10-01T16:59:30.330Z,12.80
2022-10-01T17:01:58.413Z,13.40
2022-10-01T17:04:33.811Z,12.80
2022-10-01T17:07:01.595Z,12.90
2022-10-01T17:09:29.067Z,12.80
2022-10-01T17:11:58.471Z,12.90
2022-10-01T17:14:25.515Z,12.90
2022-10-01T17:16:53.553Z,12.90
2022-10-01T17:19:21.057Z,12.80
2022-10-01T17:21:48.180Z,12.90
2022-10-01T17:24:15.262Z,12.90
2022-10-01T17:26:43.093Z,12.90
2022-10-01T17:29:10.407Z,12.90
2022-10-01T17:31:38.395Z,12.90
2022-10-01T17:34:05.556Z,12.90
2022-10-01T17:36:33.330Z,12.90
2022-10-01T17:39:00.976Z,12.90
2022-10-01T17:41:28.104Z,12.90
2022-10-01T17:43:55.173Z,12.90
2022-10-01T17:46:22.273Z,12.90
2022-10-01T17:49:51.853Z,12.90
2022-10-01T17:52:19.434Z,12.90
2022-10-01T17:54:46.212Z,14.30
2022-10-01T17:57:13.781Z,14.80
2022-10-01T17:59:40.580Z,13.00
2022-10-01T18:02:23.496Z,15.00
2022-10-01T18:04:54.231Z,14.80
2022-10-01T18:07:21.048Z,14.00
2022-10-01T18:09:47.845Z,12.90
2022-10-01T18:12:14.816Z,12.90
2022-10-01T18:14:41.707Z,13.00
2022-10-01T18:17:08.470Z,13.00
2022-10-01T18:22:22.278Z,12.90
2022-10-01T18:24:49.113Z,12.90
2022-10-01T18:27:16.126Z,13.00
2022-10-01T18:29:43.059Z,12.90
2022-10-01T18:32:21.871Z,12.90
2022-10-01T18:34:55.966Z,13.90
2022-10-01T18:37:28.801Z,13.00
2022-10-01T18:40:08.575Z,12.90
2022-10-01T18:42:46.324Z,12.90
2022-10-01T18:46:03.924Z,12.90
2022-10-01T18:49:05.309Z,12.90
2022-10-01T18:51:51.886Z,12.90
2022-10-01T18:54:57.169Z,12.90
2022-10-01T18:57:46.530Z,12.90
2022-10-01T19:00:15.591Z,12.90
2022-10-01T19:03:17.872Z,13.80
2022-10-01T19:06:20.016Z,12.90
2022-10-01T19:08:52.612Z,12.90
2022-10-01T19:11:44.389Z,12.90
2022-10-01T19:14:20.270Z,12.90
2022-10-01T19:17:24.040Z,12.90
2022-10-01T19:20:00.488Z,12.90
2022-10-01T19:23:05.934Z,12.90
2022-10-01T19:25:49.180Z,12.90
2022-10-01T19:28:22.173Z,12.90
2022-10-01T19:31:12.606Z,12.90
2022-10-01T19:33:45.380Z,12.90
2022-10-01T19:36:41.974Z,13.40
2022-10-01T19:39:20.596Z,12.90
2022-10-01T19:41:57.751Z,12.90
2022-10-01T19:44:32.001Z,13.30
2022-10-01T19:47:06.703Z,13.00
2022-10-01T19:49:35.895Z,13.00
2022-10-01T19:52:10.030Z,13.40
2022-10-01T19:54:39.108Z,13.10
2022-10-01T19:57:24.292Z,13.20
2022-10-01T19:59:53.072Z,13.10
2022-10-01T20:02:33.109Z,13.10
2022-10-01T20:05:10.417Z,13.10
2022-10-01T20:07:47.230Z,13.10
2022-10-01T20:10:29.615Z,13.10
2022-10-01T20:13:21.334Z,13.10
2022-10-01T20:16:04.406Z,13.10
2022-10-01T20:18:59.437Z,13.20
2022-10-01T20:21:46.651Z,13.20
2022-10-01T20:24:32.818Z,13.20
2022-10-01T20:27:23.019Z,13.20
2022-10-01T20:30:00.540Z,13.20
2022-10-01T20:32:29.992Z,13.20
2022-10-01T20:35:50.620Z,13.20
2022-10-01T20:38:21.518Z,13.20
2022-10-01T20:40:54.751Z,13.20
2022-10-01T20:43:31.448Z,13.20
2022-10-01T20:45:59.624Z,13.20
2022-10-01T20:48:35.663Z,13.20
2022-10-01T20:51:08.342Z,13.20
2022-10-01T20:53:44.256Z,13.10
2022-10-01T20:56:15.522Z,13.10
2022-10-01T20:59:06.996Z,13.10
2022-10-01T21:01:35.996Z,13.10
2022-10-01T21:04:02.875Z,13.10
2022-10-01T21:06:36.067Z,13.00
2022-10-01T21:09:18.344Z,13.10
2022-10-01T21:12:04.714Z,13.00
2022-10-01T21:14:34.583Z,13.00
2022-10-01T21:17:11.288Z,13.00
2022-10-01T21:20:16.168Z,13.00
2022-10-01T21:23:00.852Z,12.90
2022-10-01T21:26:05.276Z,12.90
2022-10-01T21:28:52.978Z,12.80
2022-10-01T21:31:45.117Z,12.80
2022-10-01T21:34:34.194Z,12.80
2022-10-01T21:37:04.812Z,12.70
2022-10-01T21:40:08.704Z,12.70
2022-10-01T21:42:57.113Z,12.60
2022-10-01T21:45:44.676Z,12.60
2022-10-01T21:48:39.639Z,12.50
2022-10-01T21:51:15.158Z,12.50
2022-10-01T21:54:01.650Z,12.50
2022-10-01T21:56:50.838Z,12.50
2022-10-01T21:59:31.135Z,12.50
2022-10-01T22:02:34.891Z,12.60
2022-10-01T22:05:13.121Z,12.60
2022-10-01T22:08:04.917Z,12.70
2022-10-01T22:10:40.805Z,12.70
2022-10-01T22:13:19.342Z,12.80
2022-10-01T22:15:46.738Z,12.80
2022-10-01T22:18:18.990Z,12.80
2022-10-01T22:20:45.885Z,12.80
2022-10-01T22:23:15.489Z,12.80
2022-10-01T22:25:46.343Z,12.80
2022-10-01T22:28:33.153Z,12.80
2022-10-01T22:30:59.994Z,12.80
2022-10-01T22:33:32.378Z,11.10
2022-10-01T22:36:18.435Z,12.90
2022-10-01T22:38:54.915Z,12.90
2022-10-01T22:41:36.265Z,12.90
2022-10-01T22:44:06.479Z,12.90
2022-10-01T22:46:53.752Z,12.90
2022-10-01T22:49:26.309Z,12.90
2022-10-01T22:52:02.964Z,12.90
2022-10-01T22:55:21.260Z,12.90
2022-10-01T22:57:57.326Z,12.90
2022-10-01T23:00:24.228Z,12.90
2022-10-01T23:02:59.881Z,12.90
2022-10-01T23:06:21.793Z,12.90
2022-10-01T23:09:22.709Z,12.90
2022-10-01T23:11:57.543Z,12.90
2022-10-01T23:14:39.220Z,12.90
2022-10-01T23:17:20.103Z,12.90
2022-10-01T23:19:57.393Z,12.90
2022-10-01T23:22:44.174Z,12.90
2022-10-01T23:25:32.391Z,12.90
2022-10-01T23:28:08.192Z,12.90
2022-10-01T23:30:52.467Z,13.00
2022-10-01T23:33:22.426Z,13.00
2022-10-01T23:36:15.146Z,13.00
2022-10-01T23:39:11.475Z,13.00
2022-10-01T23:41:43.623Z,13.00
2022-10-01T23:44:20.215Z,13.00
2022-10-01T23:46:47.207Z,13.10
2022-10-01T23:49:17.864Z,13.00
2022-10-01T23:52:06.636Z,13.10
2022-10-01T23:54:39.959Z,13.10
2022-10-01T23:57:26.335Z,13.10
